hero-logo

Top 15 Knowers of UNP Union Pacific Corp - 2017-07-26

Rank Fund Result (K)
1 Palestra Capital Management Llc $1,261
2 B S Pension Fund Trustee Ltd Acting For The British Steel P $445
3 Wbi Investments Inc $333
4 Northwestern Mutual Investment Management Company Llc $156
5 Squarepoint Ops Llc $145
6 Folger Hill Asset Management Lp $142
7 A R T Advisors Llc $133
8 Secor Capital Advisors Lp $104
9 Partners Group Holding Ag $102
10 Cushing Asset Management Lp $101
11 Walleye Trading Llc $89
12 Westwood Holdings Group Inc $84
13 Magellan Asset Management Ltd $75
14 Raymond James Associates $57
15 Fdo Partners Llc $54
Price Chart and News From Google Finance for UNP Union Pacific Corp
Owner Date Shares Change Price Change Result (K)
3g Capital Partners Lp 2017-03-31 -416,188 $2.24 $-932
Acrospire Investment Management Llc 2017-03-31 900 $2.24 $2
Adams Diversified Equity Fund Inc 2017-03-31 0 $2.24 $0
Advantage Investment Management Llc 2017-03-31 691 $2.24 $1
Advisors Management Group Inc Adv 2017-03-31 0 $2.24 $0
Ahl Partners Llp 2017-03-31 -11,853 $2.24 $-26
Aldebaran Financial Inc 2017-03-31 -100 $2.24 $0
Allsquare Wealth Management Llc 2017-03-31 100 $2.24 $0
Alpine Partners Vi Llc 2017-03-31 4,494 $2.24 $10
Amalgamated Bank 2017-03-31 -1,419 $2.24 $-3
Americafirst Capital Management Llc 2017-03-31 -960 $2.24 $-2
American Money Management Llc 2017-03-31 858 $2.24 $1
Amf Pensionsforsakring Ab 2017-03-31 -35,863 $2.24 $-80
Ancora Advisors Llc 2017-03-31 -672 $2.24 $-1
Aperio Group Llc 2017-03-31 10,756 $2.24 $24
Archford Capital Strategies Llc 2017-03-31 -1,120 $2.24 $-2
Archon Partners Llc 2017-03-31 0 $2.24 $0
Argentiere Capital Ag 2017-03-31 -27,500 $2.24 $-61
Arrow Financial Corp 2017-03-31 -147 $2.24 $0
Arrowpoint Asset Management Llc 2017-03-31 0 $2.24 $0
A R T Advisors Llc 2017-03-31 59,600 $2.24 $133
Ashford Capital Management Inc 2017-03-31 0 $2.24 $0
Assetmark Inc 2017-03-31 113 $2.24 $0
Auxier Asset Management 2017-03-31 0 $2.24 $0
Avalon Advisors Llc 2017-03-31 -824 $2.24 $-1
Bahl Gaynor Inc 2017-03-31 329 $2.24 $0
Balentine Llc 2017-03-31 0 $2.24 $0
Beacon Financial Group 2017-06-30 1,239 $2.99 $3
Beacon Trust Co 2017-03-31 1,233 $2.24 $2
Bishop Rock Capital L P 2017-03-31 -1,945 $2.24 $-4
Blair William Co Il 2017-03-31 -25,853 $2.24 $-57
Bluefin Trading Llc 2017-03-31 5,940 $2.24 $13
Bokf Na 2017-03-31 996 $2.24 $2
Boston Private Wealth Llc 2017-03-31 -5,914 $2.24 $-13
Bowen Hanes Co Inc 2017-03-31 -388 $2.24 $0
Bowling Portfolio Management Llc 2017-03-31 -104 $2.24 $0
Bragg Financial Advisors Inc 2017-03-31 2,927 $2.24 $6
Bridgeway Capital Management Inc 2017-03-31 -49,060 $2.24 $-109
Brinker Capital Inc 2017-03-31 -6,952 $2.24 $-15
Bristol Advisors Llc 2017-03-31 -2,700 $2.24 $-6
Broderick Brian C 2017-03-31 -400 $2.24 $0
Brown Brothers Harriman Co 2017-03-31 -17,003 $2.24 $-38
B S Pension Fund Trustee Ltd Acting For The British Steel P 2017-03-31 198,967 $2.24 $445
B T Capital Management Dba Alpha Capital Management 2017-03-31 4,905 $2.24 $10
California Capital Advisors Inc 2017-03-31 14,574 $2.24 $32
California State Teachers Retirement System 2017-03-31 -76,300 $2.24 $-170
Canandaigua National Bank Trust Co 2017-03-31 -45 $2.24 $0
Capital Guardian Trust Co 2017-03-31 -25,903 $2.24 $-58
Capital International Inc Ca 2017-03-31 -7,000 $2.24 $-15
Capital International Ltd Ca 2017-03-31 -40,900 $2.24 $-91
Capital International Sarl 2017-03-31 -16,695 $2.24 $-37
Capstone Investment Advisors Llc 2017-03-31 11,988 $2.24 $26
Catamount Wealth Management 2017-03-31 0 $2.24 $0
Cetera Advisor Networks Llc 2017-03-31 -2,810 $2.24 $-6
Cetera Advisors Llc 2017-03-31 1,819 $2.24 $4
Cetera Investment Advisers 2017-03-31 1,389 $2.24 $3
Chilton Investment Co Llc 2017-03-31 -4,786 $2.24 $-10
Circle Wealth Management Llc 2017-03-31 0 $2.24 $0
Clear Perspective Advisors Llc 2017-03-31 -1,940 $2.24 $-4
Compagnie Lombard Odier Scma 2017-03-31 -3,010 $2.24 $-6
Compton Capital Management Inc Ri 2017-03-31 0 $2.24 $0
Congress Asset Management Co Ma 2017-03-31 -980 $2.24 $-2
Cornerstone Capital Management Holdings Llc 2017-03-31 -4,858 $2.24 $-10
Cornerstone Wealth Management Llc 2017-03-31 229 $2.24 $0
Covington Capital Management 2017-03-31 -415 $2.24 $0
Cushing Asset Management Lp 2017-03-31 45,329 $2.24 $101
Cypress Wealth Advisors Llc 2017-03-31 51 $2.24 $0
D A Davidson Co 2017-03-31 -17,369 $2.24 $-38
Dana Investment Advisors Inc 2017-03-31 1,929 $2.24 $4
Davidson Investment Advisors 2017-03-31 500 $2.24 $1
Dempze Nancy E 2017-03-31 0 $2.24 $0
Denver Investment Advisors Llc 2017-03-31 -9,414 $2.24 $-21
Dixon Hubard Feinour Brown Inc Va 2017-03-31 0 $2.24 $0
Earnest Partners Llc 2017-03-31 -37,122 $2.24 $-83
Echo Street Capital Management Llc 2017-03-31 -87,202 $2.24 $-195
Edmond De Rothschild Holding S A 2017-03-31 -11,850 $2.24 $-26
Electron Capital Partners Llc 2017-03-31 -171,960 $2.24 $-385
Envestnet Asset Management Inc 2017-03-31 -19,818 $2.24 $-44
Ep Wealth Advisors Inc 2017-03-31 2,922 $2.24 $6
Estabrook Capital Management 2017-03-31 -15,202 $2.24 $-34
Eulav Asset Management 2017-03-31 0 $2.24 $0
Fairfield Bush Co 2017-03-31 -1,300 $2.24 $-2
Farmers National Bank 2017-03-31 283 $2.24 $0
Fcg Advisors Llc 2017-03-31 -2,454 $2.24 $-5
Fdo Partners Llc 2017-03-31 24,348 $2.24 $54
Fdx Advisors Inc 2017-03-31 -1,014 $2.24 $-2
Fernwood Investment Management Llc 2017-03-31 -160 $2.24 $0
Fic Capital Inc 2017-03-31 -250 $2.24 $0
Fiera Capital Corp 2017-03-31 8,492 $2.24 $19
First Foundation Advisors 2017-03-31 -503 $2.24 $-1
First Heartland Consultants Inc 2017-03-31 0 $2.24 $0
First Republic Investment Management Inc 2017-03-31 7,772 $2.24 $17
Flow Traders U S Llc 2017-03-31 2,247 $2.24 $5
Focused Wealth Management Inc 2017-03-31 0 $2.24 $0
Folger Hill Asset Management Lp 2017-03-31 63,478 $2.24 $142
Forbes J M Co Llp 2017-03-31 -167 $2.24 $0
Fort Point Capital Partners Llc 2017-03-31 -2,239 $2.24 $-5
Franklin Parlapiano Turner Welch Llc 2017-03-31 0 $2.24 $0
Gardner Lewis Asset Management L P 2017-03-31 -32,655 $2.24 $-73
Genesee Valley Trust Co 2017-03-31 1,724 $2.24 $3
Girard Securities Inc 2017-03-31 -70 $2.24 $0
Glassman Wealth Services 2017-03-31 -27 $2.24 $0
Glen Harbor Capital Management Llc 2017-03-31 -4,250 $2.24 $-9
Glg Llc 2017-03-31 4,680 $2.24 $10
Golub Group Llc 2017-03-31 -27 $2.24 $0
Gotham Asset Management Llc 2017-03-31 9,525 $2.24 $21
Green Square Capital Llc 2017-03-31 -50,905 $2.24 $-114
Greenwood Gearhart Inc 2017-03-31 2,311 $2.24 $5
Greystone Managed Investments Inc 2017-03-31 -6,383 $2.24 $-14
Group One Trading L P 2017-03-31 9,024 $2.24 $20
Gsa Capital Partners Llp 2017-03-31 -2,247 $2.24 $-5
Guardian Capital Advisors Lp 2017-03-31 -1,672 $2.24 $-3
Guggenheim Capital Llc 2017-03-31 -4,884 $2.24 $-10
Halsey Associates Inc Ct 2017-03-31 0 $2.24 $0
Hamel Associates Inc 2017-03-31 0 $2.24 $0
Hanson Doremus Investment Management 2017-03-31 -255 $2.24 $0
Hbk Sorce Advisory Llc 2017-03-31 -132 $2.24 $0
Hendley Co Inc 2017-03-31 -90 $2.24 $0
Horizon Kinetics Llc 2017-03-31 0 $2.24 $0
Hutner Capital Management Inc 2017-03-31 1,130 $2.24 $2
Ibex Wealth Advisors 2017-03-31 -241 $2.24 $0
Ifp Advisors Inc 2017-03-31 -949 $2.24 $-2
Iht Wealth Management Llc 2017-03-31 -90 $2.24 $0
Intact Investment Management Inc 2017-03-31 -12,200 $2.24 $-27
Intellectus Partners Llc 2017-03-31 -606 $2.24 $-1
Ironsides Asset Advisors Llc 2017-03-31 -14,045 $2.24 $-31
Israel Discount Bank Of New York 2017-03-31 -1,925 $2.24 $-4
Itau Unibanco Holding S A 2017-03-31 110 $2.24 $0
Jabre Capital Partners S A 2017-03-31 -37,910 $2.24 $-84
Jackson Grant Investment Advisers Inc 2017-03-31 2 $2.24 $0
Jacobs Levy Equity Management Inc 2017-03-31 5,590 $2.24 $12
Jaffetilchin Investment Partners Llc 2017-03-31 2,015 $2.24 $4
Jafra Capital Management Lp 2017-03-31 -4,927 $2.24 $-11
Jane Street Group Llc 2017-03-31 -20,012 $2.24 $-44
Johnson Investment Counsel Inc 2017-03-31 -19,406 $2.24 $-43
Kemper Corp Master Retirement Trust 2017-03-31 0 $2.24 $0
Kentucky Retirement Systems 2017-03-31 -7,626 $2.24 $-17
Kentucky Retirement Systems Insurance Trust Fund 2017-03-31 -4,676 $2.24 $-10
Kernodle Katon Asset Management Group Llc 2017-03-31 -121 $2.24 $0
Key Group Holdings Cayman Ltd 2017-03-31 -1,250 $2.24 $-2
Kidder Stephen W 2017-03-31 -188 $2.24 $0
Kimelman Baird Llc 2017-03-31 -1,000 $2.24 $-2
Kingdon Capital Management L L C 2017-03-31 -632,510 $2.24 $-1,416
Kingfisher Capital Llc 2017-03-31 -1,165 $2.24 $-2
Kovitz Investment Group Partners Llc 2017-03-31 -38,325 $2.24 $-85
Krilogy Financial Llc 2017-03-31 0 $2.24 $0
Ladenburg Thalmann Financial Services Inc 2017-03-31 179 $2.24 $0
Laffer Investments 2017-03-31 0 $2.24 $0
Lebenthal Asset Management Llc 2017-03-31 3,570 $2.24 $7
Lee Financial Corp 2017-03-31 -221 $2.24 $0
Lenox Wealth Management Inc 2017-03-31 242 $2.24 $0
Level Four Advisory Services Llc 2017-03-31 -9,824 $2.24 $-22
Logan Capital Management Inc 2017-03-31 0 $2.24 $0
Lowe Brockenbrough Co Inc 2017-03-31 -95 $2.24 $0
L S Advisors Inc 2017-03-31 6,742 $2.24 $15
Madison Investment Holdings Inc 2017-03-31 1,405 $2.24 $3
Magellan Asset Management Ltd 2017-03-31 33,690 $2.24 $75
Maple Capital Management Inc 2017-03-31 -1,178 $2.24 $-2
Marco Investment Management Llc 2017-03-31 1,600 $2.24 $3
Marietta Investment Partners Llc 2017-03-31 8,808 $2.24 $19
Mariner Wealth Advisors Llc 2017-03-31 2,449 $2.24 $5
Mason Street Advisors Llc 2017-03-31 -275 $2.24 $0
Meadow Creek Investment Management Llc 2017-03-31 -3,500 $2.24 $-7
M Holdings Securities Inc 2017-03-31 -3 $2.24 $0
Miles Capital Inc 2017-03-31 2,223 $2.24 $4
Mogy Joel R Investment Counsel Inc 2017-03-31 -1,450 $2.24 $-3
Moloney Securities Asset Management Llc 2017-03-31 862 $2.24 $1
Monroe Bank Trust Mi 2017-03-31 -226 $2.24 $0
Montecito Bank Trust 2017-03-31 1,344 $2.24 $3
Mv Capital Management Inc 2017-03-31 0 $2.24 $0
National Asset Management Inc 2017-03-31 -1,399 $2.24 $-3
Next Century Growth Investors Llc 2017-03-31 -1,531 $2.24 $-3
Northern Oak Wealth Management Inc 2017-03-31 -525 $2.24 $-1
Northwestern Mutual Investment Management Company Llc 2017-03-31 69,871 $2.24 $156
Northwestern Mutual Wealth Management Co 2017-03-31 370 $2.24 $0
Notis-Mcconarty Edward 2017-03-31 0 $2.24 $0
Optimum Investment Advisors 2017-03-31 0 $2.24 $0
Orleans Capital Management Corp La 2017-03-31 -500 $2.24 $-1
Overbrook Management Corp 2017-03-31 -330 $2.24 $0
Pacific Center For Financial Services 2017-03-31 0 $2.24 $0
Palestra Capital Management Llc 2017-03-31 563,115 $2.24 $1,261
Paloma Partners Management Co 2017-03-31 -27,063 $2.24 $-60
Partner Fund Management L P 2017-03-31 -495,048 $2.24 $-1,108
Partner Investment Management L P 2017-03-31 -10,506 $2.24 $-23
Partners Group Holding Ag 2017-03-31 45,800 $2.24 $102
Patriot Financial Group Insurance Agency Llc 2017-03-31 0 $2.24 $0
Perella Weinberg Partners Capital Management Lp 2017-03-31 4,366 $2.24 $9
Perigon Wealth Management Llc 2017-03-31 1,846 $2.24 $4
Piedmont Investment Advisors Llc 2017-03-31 -150,727 $2.24 $-337
Pinkerton Retirement Specialists Llc 2017-03-31 -123 $2.24 $0
Pittenger Anderson Inc 2017-03-31 -90 $2.24 $0
Plancorp Llc 2017-03-31 0 $2.24 $0
Polar Capital Llp 2017-03-31 -7,197 $2.24 $-16
Princeton Portfolio Strategies Group Llc 2017-03-31 -9,477 $2.24 $-21
Proficio Capital Partners Llc 2017-03-31 274 $2.24 $0
Public Employees Retirement System Of Ohio 2017-03-31 -6,670 $2.24 $-14
Puzo Michael J 2017-03-31 -450 $2.24 $-1
Quest Investment Management Inc Or 2017-03-31 -154,088 $2.24 $-345
Rainier Investment Management Llc 2017-03-31 -23,020 $2.24 $-51
Raymond James Associates 2017-03-31 25,482 $2.24 $57
Redwood Investments Llc 2017-03-31 0 $2.24 $0
Reynders Mcveigh Capital Management Llc 2017-03-31 -680 $2.24 $-1
Richard Bernstein Advisors Llc 2017-03-31 0 $2.24 $0
Riverhead Capital Management Llc 2017-03-31 2,618 $2.24 $5
Rocky Mountain Advisers Llc 2017-03-31 0 $2.24 $0
Rodgers Brothers Inc 2017-03-31 100 $2.24 $0
Roundview Capital Llc 2017-03-31 100 $2.24 $0
Salem Investment Counselors Inc 2017-03-31 -202 $2.24 $0
Sather Financial Group Inc 2017-03-31 -13 $2.24 $0
Saturna Capital Corp 2017-03-31 850 $2.24 $1
Saybrook Capital Nc 2017-03-31 7,000 $2.24 $15
Schnieders Capital Management Llc 2017-03-31 -125 $2.24 $0
Schonfeld Strategic Advisors Llc 2017-03-31 23,333 $2.24 $52
Scotia Capital Inc 2017-03-31 -908 $2.24 $-2
Secor Capital Advisors Lp 2017-03-31 46,756 $2.24 $104
Segall Bryant Hamill Llc 2017-03-31 -1,032 $2.24 $-2
Seven Eight Capital Lp 2017-03-31 4,311 $2.24 $9
Signaturefd Llc 2017-03-31 4,166 $2.24 $9
Silvercrest Asset Management Group Llc 2017-03-31 1,280 $2.24 $2
Sns Financial Group Llc 2017-03-31 -180 $2.24 $0
Somerville Kurt F 2017-03-31 0 $2.24 $0
Sowell Financial Services Llc 2017-03-31 207 $2.24 $0
Squarepoint Ops Llc 2017-03-31 64,958 $2.24 $145
Srs Capital Advisors Inc 2017-03-31 686 $2.24 $1
Sterling Capital Management Llc 2017-03-31 3,975 $2.24 $8
Sterneck Capital Management Llc 2017-03-31 -100 $2.24 $0
Stifel Financial Corp 2017-03-31 -49,246 $2.24 $-110
Stonebridge Capital Advisors Llc 2017-03-31 -1,000 $2.24 $-2
Strategic Financial Services Inc 2017-03-31 -138 $2.24 $0
Summit Global Investments 2017-03-31 4,710 $2.24 $10
Sva Plumb Wealth Management Llc 2017-03-31 -2,695 $2.24 $-6
Taurus Asset Management Llc 2017-03-31 -23,960 $2.24 $-53
Teachers Insurance Annuity Association Of America 2017-03-31 -34,800 $2.24 $-77
Tiverton Asset Management Llc 2017-03-31 -31,678 $2.24 $-70
Tortoise Investment Management Llc 2017-03-31 30 $2.24 $0
Truepoint Inc 2017-03-31 0 $2.24 $0
Tvr Capital Management Lp 2017-03-31 -8,110 $2.24 $-18
Two Sigma Securities Llc 2017-03-31 21,570 $2.24 $48
Tyers Asset Management Llc 2017-03-31 -2,000 $2.24 $-4
United Capital Financial Advisers Llc 2017-03-31 -293 $2.24 $0
Usa Financial Portformulas Corp 2017-03-31 -1,962 $2.24 $-4
Veritable L P 2017-03-31 -30 $2.24 $0
Verition Fund Management Llc 2017-03-31 10,698 $2.24 $23
Vestor Capital Llc 2017-03-31 -552 $2.24 $-1
Voloridge Investment Management Llc 2017-03-31 -324,197 $2.24 $-726
Walleye Trading Llc 2017-03-31 40,156 $2.24 $89
Waters Parkerson Co Llc 2017-03-31 -50 $2.24 $0
Wayne Hummer Investments L L C 2017-03-31 524 $2.24 $1
Wbi Investments Inc 2017-03-31 148,684 $2.24 $333
Wealthsource Partners Llc 2017-03-31 2,866 $2.24 $6
Webster Bank N A 2017-03-31 1,060 $2.24 $2
Westport Asset Management Inc 2017-03-31 0 $2.24 $0
Westside Investment Management Inc 2017-03-31 0 $2.24 $0
Westwood Holdings Group Inc 2017-03-31 37,792 $2.24 $84
Wexford Capital Lp 2017-03-31 -33,924 $2.24 $-75
Whalerock Point Partners Llc 2017-03-31 -300 $2.24 $0
Wills Financial Group Inc 2017-03-31 -132 $2.24 $0
Wimmer Associates 1 Llc 2017-03-31 -165 $2.24 $0
Wintergreen Advisers Llc 2017-03-31 0 $2.24 $0
Worth Venture Partners Llc 2017-03-31 -2,138 $2.24 $-4
Wunderlich Capital Managemnt 2017-03-31 -706 $2.24 $-1
Yorkbridge Wealth Partners Llc 2017-03-31 745 $2.24 $1
Zevin Asset Management Llc 2017-03-31 0 $2.24 $0